sensor_id;sensor_type;location;lat;lon;timestamp;temperature;humidity
17284;DHT22;8760;52.248;20.952;2022-11-15T00:00:45;6.30;99.90
17284;DHT22;8760;52.248;20.952;2022-11-15T00:03:13;6.20;99.90
17284;DHT22;8760;52.248;20.952;2022-11-15T00:05:40;6.20;99.90
17284;DHT22;8760;52.248;20.952;2022-11-15T00:08:07;6.20;99.90
17284;DHT22;8760;52.248;20.952;2022-11-15T00:10:34;6.20;99.90
17284;DHT22;8760;52.248;20.952;2022-11-15T00:13:04;6.20;99.90
17284;DHT22;8760;52.248;20.952;2022-11-15T00:15:34;6.20;99.90
17284;DHT22;8760;52.248;20.952;2022-11-15T00:18:01;6.20;99.90
17284;DHT22;8760;52.248;20.952;2022-11-15T00:20:28;6.20;99.90
17284;DHT22;8760;52.248;20.952;2022-11-15T00:22:55;6.20;99.90
17284;DHT22;8760;52.248;20.952;2022-11-15T00:25:22;6.20;99.90
17284;DHT22;8760;52.248;20.952;2022-11-15T00:27:48;6.10;99.90
17284;DHT22;8760;52.248;20.952;2022-11-15T00:30:17;6.20;99.90
17284;DHT22;8760;52.248;20.952;2022-11-15T00:32:45;6.20;99.90
17284;DHT22;8760;52.248;20.952;2022-11-15T00:35:12;6.20;99.90
17284;DHT22;8760;52.248;20.952;2022-11-15T00:37:39;6.20;99.90
17284;DHT22;8760;52.248;20.952;2022-11-15T00:40:06;6.20;99.90
17284;DHT22;8760;52.248;20.952;2022-11-15T00:42:34;6.20;99.90
17284;DHT22;8760;52.248;20.952;2022-11-15T00:45:00;6.20;99.90
17284;DHT22;8760;52.248;20.952;2022-11-15T00:47:27;6.20;99.90
17284;DHT22;8760;52.248;20.952;2022-11-15T00:49:55;6.20;99.90
17284;DHT22;8760;52.248;20.952;2022-11-15T00:52:22;6.20;99.90
17284;DHT22;8760;52.248;20.952;2022-11-15T00:54:49;6.20;99.90
17284;DHT22;8760;52.248;20.952;2022-11-15T00:57:17;6.20;99.90
17284;DHT22;8760;52.248;20.952;2022-11-15T00:59:44;6.20;99.90
17284;DHT22;8760;52.248;20.952;2022-11-15T01:02:11;6.30;99.90
17284;DHT22;8760;52.248;20.952;2022-11-15T01:04:38;6.20;99.90
17284;DHT22;8760;52.248;20.952;2022-11-15T01:07:06;6.20;99.90
17284;DHT22;8760;52.248;20.952;2022-11-15T01:09:33;6.20;99.90
17284;DHT22;8760;52.248;20.952;2022-11-15T01:11:59;6.20;99.90
17284;DHT22;8760;52.248;20.952;2022-11-15T01:14:26;6.20;99.90
17284;DHT22;8760;52.248;20.952;2022-11-15T01:16:53;6.20;99.90
17284;DHT22;8760;52.248;20.952;2022-11-15T01:19:20;6.20;99.90
17284;DHT22;8760;52.248;20.952;2022-11-15T01:21:48;6.20;99.90
17284;DHT22;8760;52.248;20.952;2022-11-15T01:24:19;6.20;99.90
17284;DHT22;8760;52.248;20.952;2022-11-15T01:26:45;6.10;99.90
17284;DHT22;8760;52.248;20.952;2022-11-15T01:29:12;6.20;99.90
17284;DHT22;8760;52.248;20.952;2022-11-15T01:31:39;6.30;99.90
17284;DHT22;8760;52.248;20.952;2022-11-15T01:34:06;6.30;99.90
17284;DHT22;8760;52.248;20.952;2022-11-15T01:36:33;6.30;99.90
17284;DHT22;8760;52.248;20.952;2022-11-15T01:38:59;6.30;99.90
17284;DHT22;8760;52.248;20.952;2022-11-15T01:41:29;6.20;99.90
17284;DHT22;8760;52.248;20.952;2022-11-15T01:44:28;6.30;99.90
17284;DHT22;8760;52.248;20.952;2022-11-15T01:46:47;6.20;99.90
17284;DHT22;8760;52.248;20.952;2022-11-15T01:49:17;6.30;99.90
17284;DHT22;8760;52.248;20.952;2022-11-15T01:51:44;6.30;99.90
17284;DHT22;8760;52.248;20.952;2022-11-15T01:54:14;6.30;99.90
17284;DHT22;8760;52.248;20.952;2022-11-15T01:56:47;6.30;99.90
17284;DHT22;8760;52.248;20.952;2022-11-15T01:59:16;6.30;99.90
17284;DHT22;8760;52.248;20.952;2022-11-15T02:01:43;6.30;99.90
17284;DHT22;8760;52.248;20.952;2022-11-15T02:04:13;6.20;99.90
17284;DHT22;8760;52.248;20.952;2022-11-15T02:06:43;6.20;99.90
17284;DHT22;8760;52.248;20.952;2022-11-15T02:09:11;6.10;99.90
17284;DHT22;8760;52.248;20.952;2022-11-15T02:11:38;6.10;99.90
17284;DHT22;8760;52.248;20.952;2022-11-15T02:14:07;6.10;99.90
17284;DHT22;8760;52.248;20.952;2022-11-15T02:16:43;6.10;99.90
17284;DHT22;8760;52.248;20.952;2022-11-15T02:19:28;6.10;99.90
17284;DHT22;8760;52.248;20.952;2022-11-15T02:22:04;6.20;99.90
17284;DHT22;8760;52.248;20.952;2022-11-15T02:28:05;6.10;99.90
17284;DHT22;8760;52.248;20.952;2022-11-15T02:30:40;6.10;99.90
17284;DHT22;8760;52.248;20.952;2022-11-15T02:33:18;6.10;99.90
17284;DHT22;8760;52.248;20.952;2022-11-15T02:35:58;6.10;99.90
17284;DHT22;8760;52.248;20.952;2022-11-15T02:38:31;6.10;99.90
17284;DHT22;8760;52.248;20.952;2022-11-15T02:41:04;6.00;99.90
17284;DHT22;8760;52.248;20.952;2022-11-15T02:43:37;6.00;99.90
17284;DHT22;8760;52.248;20.952;2022-11-15T02:46:27;5.90;99.90
17284;DHT22;8760;52.248;20.952;2022-11-15T02:49:11;5.90;99.90
17284;DHT22;8760;52.248;20.952;2022-11-15T02:51:40;5.90;99.90
17284;DHT22;8760;52.248;20.952;2022-11-15T02:54:09;5.90;99.90
17284;DHT22;8760;52.248;20.952;2022-11-15T02:56:37;5.90;99.90
17284;DHT22;8760;52.248;20.952;2022-11-15T03:02:18;6.00;99.90
17284;DHT22;8760;52.248;20.952;2022-11-15T03:04:53;5.90;99.90
17284;DHT22;8760;52.248;20.952;2022-11-15T03:07:25;5.90;99.90
17284;DHT22;8760;52.248;20.952;2022-11-15T03:09:59;5.90;99.90
17284;DHT22;8760;52.248;20.952;2022-11-15T03:12:34;5.90;99.90
17284;DHT22;8760;52.248;20.952;2022-11-15T03:15:06;5.90;99.90
17284;DHT22;8760;52.248;20.952;2022-11-15T03:17:37;5.80;99.90
17284;DHT22;8760;52.248;20.952;2022-11-15T03:20:06;5.90;99.90
17284;DHT22;8760;52.248;20.952;2022-11-15T03:22:37;5.90;99.90
17284;DHT22;8760;52.248;20.952;2022-11-15T03:25:08;5.90;99.90
17284;DHT22;8760;52.248;20.952;2022-11-15T03:27:39;5.90;99.90
17284;DHT22;8760;52.248;20.952;2022-11-15T03:30:09;5.90;99.90
17284;DHT22;8760;52.248;20.952;2022-11-15T03:32:40;5.90;99.90
17284;DHT22;8760;52.248;20.952;2022-11-15T03:35:11;5.90;99.90
17284;DHT22;8760;52.248;20.952;2022-11-15T03:37:44;5.90;99.90
17284;DHT22;8760;52.248;20.952;2022-11-15T03:40:12;5.80;99.90
17284;DHT22;8760;52.248;20.952;2022-11-15T03:42:44;5.80;99.90
17284;DHT22;8760;52.248;20.952;2022-11-15T03:45:14;5.80;99.90
17284;DHT22;8760;52.248;20.952;2022-11-15T03:47:47;5.80;99.90
17284;DHT22;8760;52.248;20.952;2022-11-15T03:50:17;5.80;99.90
17284;DHT22;8760;52.248;20.952;2022-11-15T03:52:46;5.90;99.90
17284;DHT22;8760;52.248;20.952;2022-11-15T03:55:16;5.90;99.90
17284;DHT22;8760;52.248;20.952;2022-11-15T03:57:43;5.90;99.90
17284;DHT22;8760;52.248;20.952;2022-11-15T04:00:11;6.00;99.90
17284;DHT22;8760;52.248;20.952;2022-11-15T04:02:38;5.90;99.90
17284;DHT22;8760;52.248;20.952;2022-11-15T04:05:07;5.90;99.90
17284;DHT22;8760;52.248;20.952;2022-11-15T04:07:34;5.90;99.90
17284;DHT22;8760;52.248;20.952;2022-11-15T04:10:01;5.90;99.90
17284;DHT22;8760;52.248;20.952;2022-11-15T04:12:29;5.90;99.90
17284;DHT22;8760;52.248;20.952;2022-11-15T04:15:01;5.80;99.90
17284;DHT22;8760;52.248;20.952;2022-11-15T04:17:35;5.80;99.90
17284;DHT22;8760;52.248;20.952;2022-11-15T04:20:03;5.90;99.90
17284;DHT22;8760;52.248;20.952;2022-11-15T04:22:52;5.80;99.90
17284;DHT22;8760;52.248;20.952;2022-11-15T04:25:36;5.90;99.90
17284;DHT22;8760;52.248;20.952;2022-11-15T04:28:03;5.90;99.90
17284;DHT22;8760;52.248;20.952;2022-11-15T04:30:30;5.90;99.90
17284;DHT22;8760;52.248;20.952;2022-11-15T04:32:57;5.90;99.90
17284;DHT22;8760;52.248;20.952;2022-11-15T04:35:23;5.80;99.90
17284;DHT22;8760;52.248;20.952;2022-11-15T04:37:51;5.80;99.90
17284;DHT22;8760;52.248;20.952;2022-11-15T04:40:17;5.80;99.90
17284;DHT22;8760;52.248;20.952;2022-11-15T04:42:44;5.90;99.90
17284;DHT22;8760;52.248;20.952;2022-11-15T04:45:11;5.80;99.90
17284;DHT22;8760;52.248;20.952;2022-11-15T04:47:38;5.80;99.90
17284;DHT22;8760;52.248;20.952;2022-11-15T04:50:06;5.90;99.90
17284;DHT22;8760;52.248;20.952;2022-11-15T04:52:32;5.90;99.90
17284;DHT22;8760;52.248;20.952;2022-11-15T04:55:01;5.90;99.90
17284;DHT22;8760;52.248;20.952;2022-11-15T04:57:27;5.90;99.90
17284;DHT22;8760;52.248;20.952;2022-11-15T04:59:54;5.90;99.90
17284;DHT22;8760;52.248;20.952;2022-11-15T05:02:21;5.90;99.90
17284;DHT22;8760;52.248;20.952;2022-11-15T05:04:47;5.90;99.90
17284;DHT22;8760;52.248;20.952;2022-11-15T05:07:13;6.00;99.90
17284;DHT22;8760;52.248;20.952;2022-11-15T05:09:40;6.00;99.90
17284;DHT22;8760;52.248;20.952;2022-11-15T05:12:08;5.90;99.90
17284;DHT22;8760;52.248;20.952;2022-11-15T05:14:35;5.90;99.90
17284;DHT22;8760;52.248;20.952;2022-11-15T05:17:02;5.90;99.90
17284;DHT22;8760;52.248;20.952;2022-11-15T05:19:28;5.90;99.90
17284;DHT22;8760;52.248;20.952;2022-11-15T05:21:55;5.90;99.90
17284;DHT22;8760;52.248;20.952;2022-11-15T05:24:22;5.80;99.90
17284;DHT22;8760;52.248;20.952;2022-11-15T05:26:48;5.90;99.90
17284;DHT22;8760;52.248;20.952;2022-11-15T05:29:17;5.80;99.90
17284;DHT22;8760;52.248;20.952;2022-11-15T05:31:43;5.90;99.90
17284;DHT22;8760;52.248;20.952;2022-11-15T05:34:10;5.80;99.90
17284;DHT22;8760;52.248;20.952;2022-11-15T05:36:38;5.80;99.90
17284;DHT22;8760;52.248;20.952;2022-11-15T05:39:06;5.70;99.90
17284;DHT22;8760;52.248;20.952;2022-11-15T05:41:35;5.70;99.90
17284;DHT22;8760;52.248;20.952;2022-11-15T05:44:06;5.80;99.90
17284;DHT22;8760;52.248;20.952;2022-11-15T05:46:36;5.80;99.90
17284;DHT22;8760;52.248;20.952;2022-11-15T05:49:05;5.80;99.90
17284;DHT22;8760;52.248;20.952;2022-11-15T05:51:33;5.70;99.90
17284;DHT22;8760;52.248;20.952;2022-11-15T05:54:01;5.70;99.90
17284;DHT22;8760;52.248;20.952;2022-11-15T05:56:28;5.70;99.90
17284;DHT22;8760;52.248;20.952;2022-11-15T05:58:55;5.80;99.90
17284;DHT22;8760;52.248;20.952;2022-11-15T06:01:25;5.80;99.90
17284;DHT22;8760;52.248;20.952;2022-11-15T06:03:53;5.70;99.90
17284;DHT22;8760;52.248;20.952;2022-11-15T06:06:20;5.60;99.90
17284;DHT22;8760;52.248;20.952;2022-11-15T06:08:47;5.70;99.90
17284;DHT22;8760;52.248;20.952;2022-11-15T06:11:14;5.70;99.90
17284;DHT22;8760;52.248;20.952;2022-11-15T06:13:41;5.80;99.90
17284;DHT22;8760;52.248;20.952;2022-11-15T06:16:07;5.80;99.90
17284;DHT22;8760;52.248;20.952;2022-11-15T06:18:35;5.80;99.90
17284;DHT22;8760;52.248;20.952;2022-11-15T06:21:03;5.70;99.90
17284;DHT22;8760;52.248;20.952;2022-11-15T06:23:32;5.80;99.90
17284;DHT22;8760;52.248;20.952;2022-11-15T06:25:59;5.70;99.90
17284;DHT22;8760;52.248;20.952;2022-11-15T06:28:28;5.70;99.90
17284;DHT22;8760;52.248;20.952;2022-11-15T06:30:55;5.70;99.90
17284;DHT22;8760;52.248;20.952;2022-11-15T06:33:22;5.60;99.90
17284;DHT22;8760;52.248;20.952;2022-11-15T06:35:49;5.60;99.90
17284;DHT22;8760;52.248;20.952;2022-11-15T06:38:17;5.70;99.90
17284;DHT22;8760;52.248;20.952;2022-11-15T06:40:44;5.60;99.90
17284;DHT22;8760;52.248;20.952;2022-11-15T06:43:11;5.70;99.90
17284;DHT22;8760;52.248;20.952;2022-11-15T06:45:37;5.60;99.90
17284;DHT22;8760;52.248;20.952;2022-11-15T06:48:05;5.60;99.90
17284;DHT22;8760;52.248;20.952;2022-11-15T06:50:32;5.60;99.90
17284;DHT22;8760;52.248;20.952;2022-11-15T06:53:01;5.60;99.90
17284;DHT22;8760;52.248;20.952;2022-11-15T06:55:29;5.50;99.90
17284;DHT22;8760;52.248;20.952;2022-11-15T06:57:56;5.50;99.90
17284;DHT22;8760;52.248;20.952;2022-11-15T07:00:23;5.50;99.90
17284;DHT22;8760;52.248;20.952;2022-11-15T07:02:50;5.50;99.90
17284;DHT22;8760;52.248;20.952;2022-11-15T07:05:17;5.40;99.90
17284;DHT22;8760;52.248;20.952;2022-11-15T07:07:51;5.50;99.90
17284;DHT22;8760;52.248;20.952;2022-11-15T07:10:18;5.50;99.90
17284;DHT22;8760;52.248;20.952;2022-11-15T07:12:48;5.50;99.90
17284;DHT22;8760;52.248;20.952;2022-11-15T07:15:15;5.40;99.90
17284;DHT22;8760;52.248;20.952;2022-11-15T07:17:42;5.50;99.90
17284;DHT22;8760;52.248;20.952;2022-11-15T07:20:10;5.50;99.90
17284;DHT22;8760;52.248;20.952;2022-11-15T07:22:37;5.50;99.90
17284;DHT22;8760;52.248;20.952;2022-11-15T07:25:04;5.40;99.90
17284;DHT22;8760;52.248;20.952;2022-11-15T07:27:31;5.50;99.90
17284;DHT22;8760;52.248;20.952;2022-11-15T07:29:59;5.50;99.90
17284;DHT22;8760;52.248;20.952;2022-11-15T07:32:26;5.40;99.90
17284;DHT22;8760;52.248;20.952;2022-11-15T07:34:53;5.40;99.90
17284;DHT22;8760;52.248;20.952;2022-11-15T07:37:19;5.40;99.90
17284;DHT22;8760;52.248;20.952;2022-11-15T07:39:46;5.50;99.90
17284;DHT22;8760;52.248;20.952;2022-11-15T07:42:13;5.50;99.90
17284;DHT22;8760;52.248;20.952;2022-11-15T07:44:59;5.50;99.90
17284;DHT22;8760;52.248;20.952;2022-11-15T07:47:28;5.40;99.90
17284;DHT22;8760;52.248;20.952;2022-11-15T07:49:55;5.40;99.90
17284;DHT22;8760;52.248;20.952;2022-11-15T07:52:21;5.30;99.90
17284;DHT22;8760;52.248;20.952;2022-11-15T07:54:48;5.40;99.90
17284;DHT22;8760;52.248;20.952;2022-11-15T07:57:15;5.40;99.90
17284;DHT22;8760;52.248;20.952;2022-11-15T07:59:42;5.40;99.90
17284;DHT22;8760;52.248;20.952;2022-11-15T08:02:10;5.40;99.90
17284;DHT22;8760;52.248;20.952;2022-11-15T08:04:37;5.50;99.90
17284;DHT22;8760;52.248;20.952;2022-11-15T08:07:04;5.50;99.90
17284;DHT22;8760;52.248;20.952;2022-11-15T08:09:30;5.60;99.90
17284;DHT22;8760;52.248;20.952;2022-11-15T08:11:57;5.60;99.90
17284;DHT22;8760;52.248;20.952;2022-11-15T08:14:24;5.70;99.90
17284;DHT22;8760;52.248;20.952;2022-11-15T08:16:51;5.80;99.90
17284;DHT22;8760;52.248;20.952;2022-11-15T08:19:19;5.90;99.90
17284;DHT22;8760;52.248;20.952;2022-11-15T08:21:46;5.80;99.90
17284;DHT22;8760;52.248;20.952;2022-11-15T08:24:14;5.90;99.90
17284;DHT22;8760;52.248;20.952;2022-11-15T08:26:41;5.80;99.90
17284;DHT22;8760;52.248;20.952;2022-11-15T08:29:08;5.80;99.90
17284;DHT22;8760;52.248;20.952;2022-11-15T08:31:36;5.80;99.90
17284;DHT22;8760;52.248;20.952;2022-11-15T08:34:03;5.80;99.90
17284;DHT22;8760;52.248;20.952;2022-11-15T08:36:32;5.90;99.90
17284;DHT22;8760;52.248;20.952;2022-11-15T08:38:59;5.80;99.90
17284;DHT22;8760;52.248;20.952;2022-11-15T08:41:28;5.80;99.90
17284;DHT22;8760;52.248;20.952;2022-11-15T08:43:56;5.80;99.90
17284;DHT22;8760;52.248;20.952;2022-11-15T08:46:23;5.80;99.90
17284;DHT22;8760;52.248;20.952;2022-11-15T08:48:50;5.80;99.90
17284;DHT22;8760;52.248;20.952;2022-11-15T08:51:17;5.80;99.90
17284;DHT22;8760;52.248;20.952;2022-11-15T08:53:45;5.80;99.90
17284;DHT22;8760;52.248;20.952;2022-11-15T08:56:14;5.80;99.90
17284;DHT22;8760;52.248;20.952;2022-11-15T08:58:41;5.80;99.90
17284;DHT22;8760;52.248;20.952;2022-11-15T09:01:15;5.80;99.90
17284;DHT22;8760;52.248;20.952;2022-11-15T09:03:42;5.80;99.90
17284;DHT22;8760;52.248;20.952;2022-11-15T09:06:09;5.80;99.90
17284;DHT22;8760;52.248;20.952;2022-11-15T09:08:35;5.80;99.90
17284;DHT22;8760;52.248;20.952;2022-11-15T09:11:04;5.90;99.90
17284;DHT22;8760;52.248;20.952;2022-11-15T09:13:32;6.00;99.90
17284;DHT22;8760;52.248;20.952;2022-11-15T09:15:59;6.00;99.90
17284;DHT22;8760;52.248;20.952;2022-11-15T09:18:26;6.10;99.90
17284;DHT22;8760;52.248;20.952;2022-11-15T09:20:55;6.00;99.90
17284;DHT22;8760;52.248;20.952;2022-11-15T09:23:23;6.10;99.90
17284;DHT22;8760;52.248;20.952;2022-11-15T09:25:50;6.00;99.90
17284;DHT22;8760;52.248;20.952;2022-11-15T09:28:19;6.20;99.90
17284;DHT22;8760;52.248;20.952;2022-11-15T09:30:45;6.20;99.90
17284;DHT22;8760;52.248;20.952;2022-11-15T09:33:12;6.00;99.90
17284;DHT22;8760;52.248;20.952;2022-11-15T09:35:39;6.00;99.90
17284;DHT22;8760;52.248;20.952;2022-11-15T09:38:07;6.00;99.90
17284;DHT22;8760;52.248;20.952;2022-11-15T09:40:36;6.10;99.90
17284;DHT22;8760;52.248;20.952;2022-11-15T09:46:07;6.10;99.90
17284;DHT22;8760;52.248;20.952;2022-11-15T09:48:49;6.30;99.90
17284;DHT22;8760;52.248;20.952;2022-11-15T09:51:27;6.30;99.90
17284;DHT22;8760;52.248;20.952;2022-11-15T09:54:03;6.30;99.90
17284;DHT22;8760;52.248;20.952;2022-11-15T09:56:32;6.20;99.90
17284;DHT22;8760;52.248;20.952;2022-11-15T09:59:16;6.30;99.90
17284;DHT22;8760;52.248;20.952;2022-11-15T10:01:52;6.20;99.90
17284;DHT22;8760;52.248;20.952;2022-11-15T10:04:21;6.30;99.90
17284;DHT22;8760;52.248;20.952;2022-11-15T10:06:55;6.30;99.90
17284;DHT22;8760;52.248;20.952;2022-11-15T10:09:27;6.30;99.90
17284;DHT22;8760;52.248;20.952;2022-11-15T10:11:55;6.20;99.90
17284;DHT22;8760;52.248;20.952;2022-11-15T10:14:25;6.30;99.90
17284;DHT22;8760;52.248;20.952;2022-11-15T10:17:07;6.30;99.90
17284;DHT22;8760;52.248;20.952;2022-11-15T10:19:42;6.40;99.90
17284;DHT22;8760;52.248;20.952;2022-11-15T10:22:21;6.30;99.90
17284;DHT22;8760;52.248;20.952;2022-11-15T10:24:57;6.30;99.90
17284;DHT22;8760;52.248;20.952;2022-11-15T10:27:27;6.30;99.90
17284;DHT22;8760;52.248;20.952;2022-11-15T10:29:53;6.30;99.90
17284;DHT22;8760;52.248;20.952;2022-11-15T10:32:22;6.30;99.90
17284;DHT22;8760;52.248;20.952;2022-11-15T10:34:49;6.40;99.90
17284;DHT22;8760;52.248;20.952;2022-11-15T10:37:27;6.40;99.90
17284;DHT22;8760;52.248;20.952;2022-11-15T10:40:03;6.40;99.90
17284;DHT22;8760;52.248;20.952;2022-11-15T10:42:31;6.40;99.90
17284;DHT22;8760;52.248;20.952;2022-11-15T10:44:57;6.30;99.90
17284;DHT22;8760;52.248;20.952;2022-11-15T10:47:28;6.30;99.90
17284;DHT22;8760;52.248;20.952;2022-11-15T10:49:58;6.50;99.90
17284;DHT22;8760;52.248;20.952;2022-11-15T10:52:25;6.50;99.90
17284;DHT22;8760;52.248;20.952;2022-11-15T10:54:56;6.50;99.90
17284;DHT22;8760;52.248;20.952;2022-11-15T10:57:26;6.50;99.90
17284;DHT22;8760;52.248;20.952;2022-11-15T10:59:55;6.50;99.90
17284;DHT22;8760;52.248;20.952;2022-11-15T11:02:36;6.60;99.90
17284;DHT22;8760;52.248;20.952;2022-11-15T11:05:05;6.60;99.90
17284;DHT22;8760;52.248;20.952;2022-11-15T11:07:34;6.60;99.90
17284;DHT22;8760;52.248;20.952;2022-11-15T11:10:04;6.60;99.90
17284;DHT22;8760;52.248;20.952;2022-11-15T11:12:32;6.60;99.90
17284;DHT22;8760;52.248;20.952;2022-11-15T11:15:02;6.60;99.90
17284;DHT22;8760;52.248;20.952;2022-11-15T11:17:46;6.60;99.90
17284;DHT22;8760;52.248;20.952;2022-11-15T11:20:20;6.60;99.90
17284;DHT22;8760;52.248;20.952;2022-11-15T11:23:00;6.60;99.90
17284;DHT22;8760;52.248;20.952;2022-11-15T11:25:34;6.70;99.90
17284;DHT22;8760;52.248;20.952;2022-11-15T11:28:18;6.70;99.90
17284;DHT22;8760;52.248;20.952;2022-11-15T11:30:54;6.70;99.90
17284;DHT22;8760;52.248;20.952;2022-11-15T11:33:29;6.70;99.90
17284;DHT22;8760;52.248;20.952;2022-11-15T11:36:06;6.80;99.90
17284;DHT22;8760;52.248;20.952;2022-11-15T11:38:44;6.80;99.90
17284;DHT22;8760;52.248;20.952;2022-11-15T11:41:22;6.80;99.90
17284;DHT22;8760;52.248;20.952;2022-11-15T11:43:59;6.90;99.90
17284;DHT22;8760;52.248;20.952;2022-11-15T11:46:47;6.80;99.90
17284;DHT22;8760;52.248;20.952;2022-11-15T11:49:20;7.00;99.90
17284;DHT22;8760;52.248;20.952;2022-11-15T11:51:53;7.00;99.90
17284;DHT22;8760;52.248;20.952;2022-11-15T11:54:24;6.90;99.90
17284;DHT22;8760;52.248;20.952;2022-11-15T11:56:53;7.00;99.90
17284;DHT22;8760;52.248;20.952;2022-11-15T11:59:25;7.00;99.90
17284;DHT22;8760;52.248;20.952;2022-11-15T12:01:55;7.00;99.90
17284;DHT22;8760;52.248;20.952;2022-11-15T12:04:29;7.00;99.90
17284;DHT22;8760;52.248;20.952;2022-11-15T12:07:00;7.00;99.90
17284;DHT22;8760;52.248;20.952;2022-11-15T12:09:33;7.00;99.90
17284;DHT22;8760;52.248;20.952;2022-11-15T12:12:08;7.10;99.90
17284;DHT22;8760;52.248;20.952;2022-11-15T12:14:41;7.20;99.90
17284;DHT22;8760;52.248;20.952;2022-11-15T12:17:10;7.10;99.90
17284;DHT22;8760;52.248;20.952;2022-11-15T12:19:39;7.20;99.90
17284;DHT22;8760;52.248;20.952;2022-11-15T12:22:10;7.20;99.90
17284;DHT22;8760;52.248;20.952;2022-11-15T12:24:41;7.20;99.90
17284;DHT22;8760;52.248;20.952;2022-11-15T12:27:15;7.20;99.90
17284;DHT22;8760;52.248;20.952;2022-11-15T12:29:45;7.30;99.90
17284;DHT22;8760;52.248;20.952;2022-11-15T12:32:23;7.30;99.90
17284;DHT22;8760;52.248;20.952;2022-11-15T12:34:53;7.30;99.90
17284;DHT22;8760;52.248;20.952;2022-11-15T12:40:35;7.30;99.90
17284;DHT22;8760;52.248;20.952;2022-11-15T12:46:11;7.30;99.90
17284;DHT22;8760;52.248;20.952;2022-11-15T12:48:57;7.40;99.90
17284;DHT22;8760;52.248;20.952;2022-11-15T12:55:01;7.30;99.90
17284;DHT22;8760;52.248;20.952;2022-11-15T12:57:37;7.30;99.90
17284;DHT22;8760;52.248;20.952;2022-11-15T13:03:27;7.20;99.90
17284;DHT22;8760;52.248;20.952;2022-11-15T13:06:09;7.10;99.90
17284;DHT22;8760;52.248;20.952;2022-11-15T13:08:55;7.10;99.90
17284;DHT22;8760;52.248;20.952;2022-11-15T13:11:49;7.20;99.90
17284;DHT22;8760;52.248;20.952;2022-11-15T13:14:50;7.20;99.90
17284;DHT22;8760;52.248;20.952;2022-11-15T13:20:20;7.20;99.90
17284;DHT22;8760;52.248;20.952;2022-11-15T13:22:49;7.10;99.90
17284;DHT22;8760;52.248;20.952;2022-11-15T13:28:20;7.20;99.90
17284;DHT22;8760;52.248;20.952;2022-11-15T13:30:52;7.20;99.90
17284;DHT22;8760;52.248;20.952;2022-11-15T13:33:21;7.10;99.90
17284;DHT22;8760;52.248;20.952;2022-11-15T13:35:51;7.10;99.90
17284;DHT22;8760;52.248;20.952;2022-11-15T13:38:26;7.00;99.90
17284;DHT22;8760;52.248;20.952;2022-11-15T13:40:53;7.10;99.90
17284;DHT22;8760;52.248;20.952;2022-11-15T13:43:28;7.10;99.90
17284;DHT22;8760;52.248;20.952;2022-11-15T13:46:11;7.10;99.90
17284;DHT22;8760;52.248;20.952;2022-11-15T13:48:39;7.00;99.90
17284;DHT22;8760;52.248;20.952;2022-11-15T13:51:09;7.10;99.90
17284;DHT22;8760;52.248;20.952;2022-11-15T13:53:42;7.10;99.90
17284;DHT22;8760;52.248;20.952;2022-11-15T13:56:12;7.10;99.90
17284;DHT22;8760;52.248;20.952;2022-11-15T13:58:40;7.10;99.90
17284;DHT22;8760;52.248;20.952;2022-11-15T14:01:15;7.10;99.90
17284;DHT22;8760;52.248;20.952;2022-11-15T14:03:49;7.10;99.90
17284;DHT22;8760;52.248;20.952;2022-11-15T14:06:19;7.00;99.90
17284;DHT22;8760;52.248;20.952;2022-11-15T14:09:00;7.00;99.90
17284;DHT22;8760;52.248;20.952;2022-11-15T14:11:27;7.00;99.90
17284;DHT22;8760;52.248;20.952;2022-11-15T14:14:13;7.00;99.90
17284;DHT22;8760;52.248;20.952;2022-11-15T14:16:42;7.00;99.90
17284;DHT22;8760;52.248;20.952;2022-11-15T14:19:12;7.00;99.90
17284;DHT22;8760;52.248;20.952;2022-11-15T14:22:10;7.00;99.90
17284;DHT22;8760;52.248;20.952;2022-11-15T14:24:37;6.90;99.90
17284;DHT22;8760;52.248;20.952;2022-11-15T14:27:22;6.90;99.90
17284;DHT22;8760;52.248;20.952;2022-11-15T14:29:51;7.00;99.90
17284;DHT22;8760;52.248;20.952;2022-11-15T14:32:20;6.90;99.90
17284;DHT22;8760;52.248;20.952;2022-11-15T14:34:48;6.90;99.90
17284;DHT22;8760;52.248;20.952;2022-11-15T14:37:21;7.00;99.90
17284;DHT22;8760;52.248;20.952;2022-11-15T14:39:49;7.00;99.90
17284;DHT22;8760;52.248;20.952;2022-11-15T14:42:16;6.90;99.90
17284;DHT22;8760;52.248;20.952;2022-11-15T14:44:43;6.90;99.90
17284;DHT22;8760;52.248;20.952;2022-11-15T14:47:12;6.90;99.90
17284;DHT22;8760;52.248;20.952;2022-11-15T14:49:39;6.90;99.90
17284;DHT22;8760;52.248;20.952;2022-11-15T14:54:59;6.80;99.90
17284;DHT22;8760;52.248;20.952;2022-11-15T14:57:26;6.80;99.90
17284;DHT22;8760;52.248;20.952;2022-11-15T14:59:53;6.80;99.90
17284;DHT22;8760;52.248;20.952;2022-11-15T15:02:23;6.90;99.90
17284;DHT22;8760;52.248;20.952;2022-11-15T15:04:50;6.80;99.90
17284;DHT22;8760;52.248;20.952;2022-11-15T15:07:17;6.70;99.90
17284;DHT22;8760;52.248;20.952;2022-11-15T15:09:45;6.70;99.90
17284;DHT22;8760;52.248;20.952;2022-11-15T15:12:15;6.60;99.90
17284;DHT22;8760;52.248;20.952;2022-11-15T15:14:43;6.60;99.90
17284;DHT22;8760;52.248;20.952;2022-11-15T15:17:10;6.50;99.90
17284;DHT22;8760;52.248;20.952;2022-11-15T15:19:38;6.50;99.90
17284;DHT22;8760;52.248;20.952;2022-11-15T15:22:05;6.60;99.90
17284;DHT22;8760;52.248;20.952;2022-11-15T15:24:32;6.60;99.90
17284;DHT22;8760;52.248;20.952;2022-11-15T15:26:59;6.60;99.90
17284;DHT22;8760;52.248;20.952;2022-11-15T15:29:25;6.50;99.90
17284;DHT22;8760;52.248;20.952;2022-11-15T15:31:52;6.60;99.90
17284;DHT22;8760;52.248;20.952;2022-11-15T15:34:19;6.60;99.90
17284;DHT22;8760;52.248;20.952;2022-11-15T15:36:47;6.60;99.90
17284;DHT22;8760;52.248;20.952;2022-11-15T15:39:14;6.60;99.90
17284;DHT22;8760;52.248;20.952;2022-11-15T15:41:40;6.60;99.90
17284;DHT22;8760;52.248;20.952;2022-11-15T15:44:07;6.60;99.90
17284;DHT22;8760;52.248;20.952;2022-11-15T15:46:34;6.60;99.90
17284;DHT22;8760;52.248;20.952;2022-11-15T15:49:01;6.60;99.90
17284;DHT22;8760;52.248;20.952;2022-11-15T15:51:28;6.60;99.90
17284;DHT22;8760;52.248;20.952;2022-11-15T15:53:56;6.60;99.90
17284;DHT22;8760;52.248;20.952;2022-11-15T15:56:23;6.60;99.90
17284;DHT22;8760;52.248;20.952;2022-11-15T15:58:50;6.50;99.90
17284;DHT22;8760;52.248;20.952;2022-11-15T16:01:18;6.50;99.90
17284;DHT22;8760;52.248;20.952;2022-11-15T16:03:45;6.50;99.90
17284;DHT22;8760;52.248;20.952;2022-11-15T16:06:33;6.50;99.90
17284;DHT22;8760;52.248;20.952;2022-11-15T16:09:02;6.50;99.90
17284;DHT22;8760;52.248;20.952;2022-11-15T16:11:29;6.50;99.90
17284;DHT22;8760;52.248;20.952;2022-11-15T16:13:56;6.40;99.90
17284;DHT22;8760;52.248;20.952;2022-11-15T16:16:23;6.50;99.90
17284;DHT22;8760;52.248;20.952;2022-11-15T16:18:50;6.40;99.90
17284;DHT22;8760;52.248;20.952;2022-11-15T16:21:16;6.40;99.90
17284;DHT22;8760;52.248;20.952;2022-11-15T16:23:43;6.40;99.90
17284;DHT22;8760;52.248;20.952;2022-11-15T16:26:22;6.40;99.90
17284;DHT22;8760;52.248;20.952;2022-11-15T16:28:50;6.40;99.90
17284;DHT22;8760;52.248;20.952;2022-11-15T16:31:17;6.40;99.90
17284;DHT22;8760;52.248;20.952;2022-11-15T16:33:46;6.30;99.90